sensor_id;sensor_type;location;lat;lon;timestamp;P1;durP1;ratioP1;P2;durP2;ratioP2
51495;SDS011;37572;52.094;4.870;2022-12-20T00:01:20;7.55;;;5.03;;
51495;SDS011;37572;52.094;4.870;2022-12-20T00:03:47;6.60;;;4.38;;
51495;SDS011;37572;52.094;4.870;2022-12-20T00:06:12;8.50;;;4.95;;
51495;SDS011;37572;52.094;4.870;2022-12-20T00:08:38;6.57;;;4.45;;
51495;SDS011;37572;52.094;4.870;2022-12-20T00:11:04;8.57;;;5.07;;
51495;SDS011;37572;52.094;4.870;2022-12-20T00:13:30;7.25;;;4.28;;
51495;SDS011;37572;52.094;4.870;2022-12-20T00:18:33;7.30;;;4.50;;
51495;SDS011;37572;52.094;4.870;2022-12-20T00:20:59;6.97;;;5.63;;
51495;SDS011;37572;52.094;4.870;2022-12-20T00:23:25;7.95;;;4.38;;
51495;SDS011;37572;52.094;4.870;2022-12-20T00:25:50;6.63;;;5.40;;
51495;SDS011;37572;52.094;4.870;2022-12-20T00:28:15;6.03;;;4.70;;
51495;SDS011;37572;52.094;4.870;2022-12-20T00:30:40;9.03;;;5.23;;
51495;SDS011;37572;52.094;4.870;2022-12-20T00:33:05;8.57;;;5.20;;
51495;SDS011;37572;52.094;4.870;2022-12-20T00:35:30;5.70;;;4.13;;
51495;SDS011;37572;52.094;4.870;2022-12-20T00:37:56;5.73;;;4.50;;
51495;SDS011;37572;52.094;4.870;2022-12-20T00:40:21;5.63;;;3.83;;
51495;SDS011;37572;52.094;4.870;2022-12-20T00:42:46;6.83;;;4.20;;
51495;SDS011;37572;52.094;4.870;2022-12-20T00:45:11;6.87;;;4.57;;
51495;SDS011;37572;52.094;4.870;2022-12-20T00:47:36;7.83;;;4.13;;
51495;SDS011;37572;52.094;4.870;2022-12-20T00:50:01;7.20;;;4.20;;
51495;SDS011;37572;52.094;4.870;2022-12-20T00:52:27;7.47;;;3.87;;
51495;SDS011;37572;52.094;4.870;2022-12-20T00:54:52;7.13;;;5.30;;
51495;SDS011;37572;52.094;4.870;2022-12-20T00:57:17;6.20;;;3.50;;
51495;SDS011;37572;52.094;4.870;2022-12-20T00:59:42;4.90;;;4.40;;
51495;SDS011;37572;52.094;4.870;2022-12-20T01:02:07;8.40;;;4.30;;
51495;SDS011;37572;52.094;4.870;2022-12-20T01:04:32;6.17;;;4.03;;
51495;SDS011;37572;52.094;4.870;2022-12-20T01:06:58;7.80;;;4.30;;
51495;SDS011;37572;52.094;4.870;2022-12-20T01:09:23;4.90;;;3.85;;
51495;SDS011;37572;52.094;4.870;2022-12-20T01:11:48;8.27;;;4.20;;
51495;SDS011;37572;52.094;4.870;2022-12-20T01:14:14;6.27;;;3.67;;
51495;SDS011;37572;52.094;4.870;2022-12-20T01:16:40;7.32;;;4.38;;
51495;SDS011;37572;52.094;4.870;2022-12-20T01:19:06;6.95;;;5.32;;
51495;SDS011;37572;52.094;4.870;2022-12-20T01:21:32;8.15;;;4.85;;
51495;SDS011;37572;52.094;4.870;2022-12-20T01:23:58;6.40;;;4.53;;
51495;SDS011;37572;52.094;4.870;2022-12-20T01:26:24;6.60;;;4.50;;
51495;SDS011;37572;52.094;4.870;2022-12-20T01:28:53;7.05;;;5.00;;
51495;SDS011;37572;52.094;4.870;2022-12-20T01:31:19;8.95;;;5.25;;
51495;SDS011;37572;52.094;4.870;2022-12-20T01:33:46;6.85;;;4.63;;
51495;SDS011;37572;52.094;4.870;2022-12-20T01:36:15;9.25;;;5.30;;
51495;SDS011;37572;52.094;4.870;2022-12-20T01:38:41;7.85;;;4.50;;
51495;SDS011;37572;52.094;4.870;2022-12-20T01:41:06;7.77;;;4.63;;
51495;SDS011;37572;52.094;4.870;2022-12-20T01:43:44;5.77;;;3.90;;
51495;SDS011;37572;52.094;4.870;2022-12-20T01:46:09;7.00;;;4.03;;
51495;SDS011;37572;52.094;4.870;2022-12-20T01:48:35;8.93;;;4.45;;
51495;SDS011;37572;52.094;4.870;2022-12-20T01:51:00;6.57;;;5.00;;
51495;SDS011;37572;52.094;4.870;2022-12-20T01:53:25;6.83;;;4.70;;
51495;SDS011;37572;52.094;4.870;2022-12-20T01:55:50;6.80;;;5.10;;
51495;SDS011;37572;52.094;4.870;2022-12-20T01:58:16;7.05;;;4.90;;
51495;SDS011;37572;52.094;4.870;2022-12-20T02:00:42;7.90;;;5.35;;
51495;SDS011;37572;52.094;4.870;2022-12-20T02:03:09;6.97;;;5.00;;
51495;SDS011;37572;52.094;4.870;2022-12-20T02:05:36;6.80;;;4.88;;
51495;SDS011;37572;52.094;4.870;2022-12-20T02:08:02;6.90;;;4.97;;
51495;SDS011;37572;52.094;4.870;2022-12-20T02:10:33;7.35;;;4.13;;
51495;SDS011;37572;52.094;4.870;2022-12-20T02:13:03;9.88;;;5.05;;
51495;SDS011;37572;52.094;4.870;2022-12-20T02:15:31;8.32;;;4.95;;
51495;SDS011;37572;52.094;4.870;2022-12-20T02:18:14;7.85;;;4.53;;
51495;SDS011;37572;52.094;4.870;2022-12-20T02:20:53;7.72;;;4.45;;
51495;SDS011;37572;52.094;4.870;2022-12-20T02:30:54;8.38;;;5.07;;
51495;SDS011;37572;52.094;4.870;2022-12-20T02:33:21;7.93;;;4.68;;
51495;SDS011;37572;52.094;4.870;2022-12-20T02:35:47;6.43;;;5.20;;
51495;SDS011;37572;52.094;4.870;2022-12-20T02:38:27;8.77;;;4.93;;
51495;SDS011;37572;52.094;4.870;2022-12-20T02:40:54;7.90;;;4.97;;
51495;SDS011;37572;52.094;4.870;2022-12-20T02:43:21;5.97;;;4.15;;
51495;SDS011;37572;52.094;4.870;2022-12-20T02:46:06;6.72;;;4.35;;
51495;SDS011;37572;52.094;4.870;2022-12-20T02:48:32;8.63;;;4.55;;
51495;SDS011;37572;52.094;4.870;2022-12-20T02:50:59;8.18;;;4.90;;
51495;SDS011;37572;52.094;4.870;2022-12-20T02:53:25;6.82;;;4.65;;
51495;SDS011;37572;52.094;4.870;2022-12-20T03:00:56;6.40;;;4.63;;
51495;SDS011;37572;52.094;4.870;2022-12-20T03:03:23;9.55;;;5.35;;
51495;SDS011;37572;52.094;4.870;2022-12-20T03:05:49;6.80;;;5.35;;
51495;SDS011;37572;52.094;4.870;2022-12-20T03:08:15;6.50;;;4.88;;
51495;SDS011;37572;52.094;4.870;2022-12-20T03:10:40;6.60;;;4.90;;
51495;SDS011;37572;52.094;4.870;2022-12-20T03:13:06;7.13;;;4.67;;
51495;SDS011;37572;52.094;4.870;2022-12-20T03:15:31;7.57;;;4.40;;
51495;SDS011;37572;52.094;4.870;2022-12-20T03:17:56;6.90;;;4.03;;
51495;SDS011;37572;52.094;4.870;2022-12-20T03:20:21;6.67;;;4.03;;
51495;SDS011;37572;52.094;4.870;2022-12-20T03:22:46;6.93;;;4.17;;
51495;SDS011;37572;52.094;4.870;2022-12-20T03:25:12;6.30;;;4.37;;
51495;SDS011;37572;52.094;4.870;2022-12-20T03:27:37;7.17;;;3.83;;
51495;SDS011;37572;52.094;4.870;2022-12-20T03:30:02;6.30;;;4.80;;
51495;SDS011;37572;52.094;4.870;2022-12-20T03:32:28;5.72;;;4.05;;
51495;SDS011;37572;52.094;4.870;2022-12-20T03:34:53;5.67;;;4.20;;
51495;SDS011;37572;52.094;4.870;2022-12-20T03:37:18;5.93;;;4.20;;
51495;SDS011;37572;52.094;4.870;2022-12-20T03:39:43;6.33;;;3.80;;
51495;SDS011;37572;52.094;4.870;2022-12-20T03:42:08;5.57;;;3.97;;
51495;SDS011;37572;52.094;4.870;2022-12-20T03:44:34;6.97;;;4.43;;
51495;SDS011;37572;52.094;4.870;2022-12-20T03:46:59;5.17;;;3.87;;
51495;SDS011;37572;52.094;4.870;2022-12-20T03:49:24;6.47;;;4.17;;
51495;SDS011;37572;52.094;4.870;2022-12-20T03:51:49;5.77;;;4.57;;
51495;SDS011;37572;52.094;4.870;2022-12-20T03:54:14;5.40;;;4.18;;
51495;SDS011;37572;52.094;4.870;2022-12-20T03:56:40;6.93;;;5.00;;
51495;SDS011;37572;52.094;4.870;2022-12-20T03:59:05;5.40;;;3.83;;
51495;SDS011;37572;52.094;4.870;2022-12-20T04:01:30;5.53;;;3.83;;
51495;SDS011;37572;52.094;4.870;2022-12-20T04:03:57;5.57;;;4.32;;
51495;SDS011;37572;52.094;4.870;2022-12-20T04:06:22;6.50;;;4.00;;
51495;SDS011;37572;52.094;4.870;2022-12-20T04:08:47;8.73;;;4.30;;
51495;SDS011;37572;52.094;4.870;2022-12-20T04:11:13;5.70;;;4.28;;
51495;SDS011;37572;52.094;4.870;2022-12-20T04:13:47;6.22;;;4.78;;
51495;SDS011;37572;52.094;4.870;2022-12-20T04:16:14;6.43;;;3.95;;
51495;SDS011;37572;52.094;4.870;2022-12-20T04:18:39;7.20;;;4.22;;
51495;SDS011;37572;52.094;4.870;2022-12-20T04:21:04;8.83;;;4.57;;
51495;SDS011;37572;52.094;4.870;2022-12-20T04:23:31;6.38;;;3.42;;
51495;SDS011;37572;52.094;4.870;2022-12-20T04:25:56;6.13;;;4.32;;
51495;SDS011;37572;52.094;4.870;2022-12-20T04:28:21;5.70;;;3.87;;
51495;SDS011;37572;52.094;4.870;2022-12-20T04:30:46;4.97;;;3.77;;
51495;SDS011;37572;52.094;4.870;2022-12-20T04:33:11;8.87;;;5.37;;
51495;SDS011;37572;52.094;4.870;2022-12-20T04:35:37;6.67;;;4.07;;
51495;SDS011;37572;52.094;4.870;2022-12-20T04:38:02;4.97;;;3.77;;
51495;SDS011;37572;52.094;4.870;2022-12-20T04:40:27;6.13;;;3.80;;
51495;SDS011;37572;52.094;4.870;2022-12-20T04:42:53;8.27;;;4.63;;
51495;SDS011;37572;52.094;4.870;2022-12-20T04:45:18;5.23;;;4.73;;
51495;SDS011;37572;52.094;4.870;2022-12-20T04:47:43;6.80;;;4.13;;
51495;SDS011;37572;52.094;4.870;2022-12-20T04:50:08;7.03;;;4.90;;
51495;SDS011;37572;52.094;4.870;2022-12-20T04:52:33;7.13;;;4.28;;
51495;SDS011;37572;52.094;4.870;2022-12-20T04:55:17;7.35;;;4.82;;
51495;SDS011;37572;52.094;4.870;2022-12-20T04:57:42;7.83;;;4.97;;
51495;SDS011;37572;52.094;4.870;2022-12-20T05:00:08;8.17;;;5.00;;
51495;SDS011;37572;52.094;4.870;2022-12-20T05:02:33;9.82;;;4.82;;
51495;SDS011;37572;52.094;4.870;2022-12-20T05:04:58;9.87;;;5.00;;
51495;SDS011;37572;52.094;4.870;2022-12-20T05:07:23;8.47;;;4.90;;
51495;SDS011;37572;52.094;4.870;2022-12-20T05:09:48;8.67;;;4.60;;
51495;SDS011;37572;52.094;4.870;2022-12-20T05:12:13;6.50;;;4.33;;
51495;SDS011;37572;52.094;4.870;2022-12-20T05:14:39;8.63;;;5.60;;
51495;SDS011;37572;52.094;4.870;2022-12-20T05:17:04;7.10;;;4.97;;
51495;SDS011;37572;52.094;4.870;2022-12-20T05:19:29;9.20;;;4.97;;
51495;SDS011;37572;52.094;4.870;2022-12-20T05:21:54;9.03;;;5.27;;
51495;SDS011;37572;52.094;4.870;2022-12-20T05:24:38;7.90;;;5.07;;
51495;SDS011;37572;52.094;4.870;2022-12-20T05:27:22;8.55;;;5.30;;
51495;SDS011;37572;52.094;4.870;2022-12-20T05:29:47;7.63;;;5.03;;
51495;SDS011;37572;52.094;4.870;2022-12-20T05:32:12;8.67;;;4.80;;
51495;SDS011;37572;52.094;4.870;2022-12-20T05:34:38;7.40;;;4.30;;
51495;SDS011;37572;52.094;4.870;2022-12-20T05:37:03;9.27;;;5.47;;
51495;SDS011;37572;52.094;4.870;2022-12-20T05:39:28;6.40;;;4.43;;
51495;SDS011;37572;52.094;4.870;2022-12-20T05:41:53;7.20;;;4.40;;
51495;SDS011;37572;52.094;4.870;2022-12-20T05:44:18;7.93;;;4.80;;
51495;SDS011;37572;52.094;4.870;2022-12-20T05:46:46;8.10;;;5.00;;
51495;SDS011;37572;52.094;4.870;2022-12-20T05:49:11;7.07;;;4.17;;
51495;SDS011;37572;52.094;4.870;2022-12-20T05:51:36;7.80;;;4.60;;
51495;SDS011;37572;52.094;4.870;2022-12-20T05:54:01;7.70;;;5.03;;
51495;SDS011;37572;52.094;4.870;2022-12-20T05:56:26;7.43;;;5.25;;
51495;SDS011;37572;52.094;4.870;2022-12-20T05:58:52;6.95;;;4.60;;
51495;SDS011;37572;52.094;4.870;2022-12-20T06:01:17;8.30;;;4.83;;
51495;SDS011;37572;52.094;4.870;2022-12-20T06:03:42;7.77;;;5.10;;
51495;SDS011;37572;52.094;4.870;2022-12-20T06:06:08;8.23;;;4.30;;
51495;SDS011;37572;52.094;4.870;2022-12-20T06:08:33;6.17;;;4.87;;
51495;SDS011;37572;52.094;4.870;2022-12-20T06:10:58;7.20;;;4.40;;
51495;SDS011;37572;52.094;4.870;2022-12-20T06:13:23;6.73;;;4.50;;
51495;SDS011;37572;52.094;4.870;2022-12-20T06:15:48;7.10;;;4.13;;
51495;SDS011;37572;52.094;4.870;2022-12-20T06:18:13;7.80;;;4.63;;
51495;SDS011;37572;52.094;4.870;2022-12-20T06:20:39;8.77;;;4.27;;
51495;SDS011;37572;52.094;4.870;2022-12-20T06:23:05;9.43;;;4.50;;
51495;SDS011;37572;52.094;4.870;2022-12-20T06:25:31;8.13;;;5.18;;
51495;SDS011;37572;52.094;4.870;2022-12-20T06:27:56;7.68;;;4.05;;
51495;SDS011;37572;52.094;4.870;2022-12-20T06:30:22;5.70;;;3.70;;
51495;SDS011;37572;52.094;4.870;2022-12-20T06:32:47;7.07;;;4.07;;
51495;SDS011;37572;52.094;4.870;2022-12-20T06:35:12;5.40;;;3.77;;
51495;SDS011;37572;52.094;4.870;2022-12-20T06:37:40;6.55;;;3.60;;
51495;SDS011;37572;52.094;4.870;2022-12-20T06:40:09;5.85;;;3.85;;
51495;SDS011;37572;52.094;4.870;2022-12-20T06:42:34;6.38;;;3.83;;
51495;SDS011;37572;52.094;4.870;2022-12-20T06:44:59;6.23;;;4.23;;
51495;SDS011;37572;52.094;4.870;2022-12-20T06:47:25;6.20;;;3.57;;
51495;SDS011;37572;52.094;4.870;2022-12-20T06:49:50;7.50;;;3.73;;
51495;SDS011;37572;52.094;4.870;2022-12-20T06:52:15;6.23;;;3.63;;
51495;SDS011;37572;52.094;4.870;2022-12-20T06:54:40;8.33;;;3.67;;
51495;SDS011;37572;52.094;4.870;2022-12-20T06:57:05;5.53;;;3.67;;
51495;SDS011;37572;52.094;4.870;2022-12-20T06:59:31;6.37;;;3.50;;
51495;SDS011;37572;52.094;4.870;2022-12-20T07:01:56;6.55;;;4.47;;
51495;SDS011;37572;52.094;4.870;2022-12-20T07:04:21;7.10;;;3.53;;
51495;SDS011;37572;52.094;4.870;2022-12-20T07:06:46;5.33;;;3.10;;
51495;SDS011;37572;52.094;4.870;2022-12-20T07:09:11;5.80;;;3.67;;
51495;SDS011;37572;52.094;4.870;2022-12-20T07:11:37;6.53;;;3.17;;
51495;SDS011;37572;52.094;4.870;2022-12-20T07:14:02;5.38;;;3.25;;
51495;SDS011;37572;52.094;4.870;2022-12-20T07:16:27;6.07;;;3.57;;
51495;SDS011;37572;52.094;4.870;2022-12-20T07:18:52;6.07;;;3.13;;
51495;SDS011;37572;52.094;4.870;2022-12-20T07:21:18;5.45;;;3.35;;
51495;SDS011;37572;52.094;4.870;2022-12-20T07:23:44;8.48;;;3.70;;
51495;SDS011;37572;52.094;4.870;2022-12-20T07:26:09;6.57;;;3.10;;
51495;SDS011;37572;52.094;4.870;2022-12-20T07:28:35;4.20;;;2.92;;
51495;SDS011;37572;52.094;4.870;2022-12-20T07:31:01;8.33;;;3.80;;
51495;SDS011;37572;52.094;4.870;2022-12-20T07:33:26;5.10;;;3.38;;
51495;SDS011;37572;52.094;4.870;2022-12-20T07:35:58;5.88;;;3.75;;
51495;SDS011;37572;52.094;4.870;2022-12-20T07:38:23;6.25;;;3.53;;
51495;SDS011;37572;52.094;4.870;2022-12-20T07:40:48;7.50;;;4.00;;
51495;SDS011;37572;52.094;4.870;2022-12-20T07:43:13;7.17;;;2.80;;
51495;SDS011;37572;52.094;4.870;2022-12-20T07:45:38;7.00;;;4.37;;
51495;SDS011;37572;52.094;4.870;2022-12-20T07:48:04;4.83;;;2.90;;
51495;SDS011;37572;52.094;4.870;2022-12-20T07:50:29;6.60;;;3.33;;
51495;SDS011;37572;52.094;4.870;2022-12-20T07:52:55;5.72;;;3.08;;
51495;SDS011;37572;52.094;4.870;2022-12-20T07:55:20;5.65;;;3.25;;
51495;SDS011;37572;52.094;4.870;2022-12-20T07:57:52;7.33;;;4.30;;
51495;SDS011;37572;52.094;4.870;2022-12-20T08:00:19;6.03;;;3.70;;
51495;SDS011;37572;52.094;4.870;2022-12-20T08:02:50;5.80;;;3.65;;
51495;SDS011;37572;52.094;4.870;2022-12-20T08:05:17;7.68;;;3.95;;
51495;SDS011;37572;52.094;4.870;2022-12-20T08:07:42;7.63;;;3.97;;
51495;SDS011;37572;52.094;4.870;2022-12-20T08:10:08;6.15;;;3.40;;
51495;SDS011;37572;52.094;4.870;2022-12-20T08:12:35;8.50;;;4.28;;
51495;SDS011;37572;52.094;4.870;2022-12-20T08:15:00;7.70;;;4.10;;
51495;SDS011;37572;52.094;4.870;2022-12-20T08:17:26;10.10;;;4.80;;
51495;SDS011;37572;52.094;4.870;2022-12-20T08:19:51;8.37;;;3.83;;
51495;SDS011;37572;52.094;4.870;2022-12-20T08:22:16;4.67;;;3.93;;
51495;SDS011;37572;52.094;4.870;2022-12-20T08:24:42;6.22;;;3.80;;
51495;SDS011;37572;52.094;4.870;2022-12-20T08:27:07;6.43;;;3.97;;
51495;SDS011;37572;52.094;4.870;2022-12-20T08:29:32;7.40;;;3.58;;
51495;SDS011;37572;52.094;4.870;2022-12-20T08:31:58;4.77;;;4.03;;
51495;SDS011;37572;52.094;4.870;2022-12-20T08:34:23;7.20;;;4.10;;
51495;SDS011;37572;52.094;4.870;2022-12-20T08:36:48;8.80;;;4.00;;
51495;SDS011;37572;52.094;4.870;2022-12-20T08:39:13;8.10;;;3.47;;
51495;SDS011;37572;52.094;4.870;2022-12-20T08:41:38;7.63;;;4.23;;
51495;SDS011;37572;52.094;4.870;2022-12-20T08:44:04;6.68;;;3.63;;
51495;SDS011;37572;52.094;4.870;2022-12-20T08:46:29;8.35;;;4.45;;
51495;SDS011;37572;52.094;4.870;2022-12-20T08:48:55;5.60;;;3.73;;
51495;SDS011;37572;52.094;4.870;2022-12-20T08:51:20;5.50;;;3.53;;
51495;SDS011;37572;52.094;4.870;2022-12-20T08:53:45;4.13;;;2.90;;
51495;SDS011;37572;52.094;4.870;2022-12-20T08:56:13;7.30;;;3.25;;
51495;SDS011;37572;52.094;4.870;2022-12-20T08:58:39;5.65;;;3.92;;
51495;SDS011;37572;52.094;4.870;2022-12-20T09:01:05;4.88;;;3.55;;
51495;SDS011;37572;52.094;4.870;2022-12-20T09:03:31;7.00;;;3.22;;
51495;SDS011;37572;52.094;4.870;2022-12-20T09:05:57;5.25;;;3.50;;
51495;SDS011;37572;52.094;4.870;2022-12-20T09:08:22;7.53;;;3.97;;
51495;SDS011;37572;52.094;4.870;2022-12-20T09:10:48;9.07;;;3.97;;
51495;SDS011;37572;52.094;4.870;2022-12-20T09:13:13;7.40;;;4.30;;
51495;SDS011;37572;52.094;4.870;2022-12-20T09:15:38;7.93;;;4.63;;
51495;SDS011;37572;52.094;4.870;2022-12-20T09:18:03;6.03;;;3.57;;
51495;SDS011;37572;52.094;4.870;2022-12-20T09:20:29;6.32;;;3.88;;
51495;SDS011;37572;52.094;4.870;2022-12-20T09:22:54;7.20;;;4.10;;
51495;SDS011;37572;52.094;4.870;2022-12-20T09:25:20;5.87;;;3.50;;
51495;SDS011;37572;52.094;4.870;2022-12-20T09:27:45;5.70;;;3.83;;
51495;SDS011;37572;52.094;4.870;2022-12-20T09:30:10;8.00;;;4.33;;
51495;SDS011;37572;52.094;4.870;2022-12-20T09:32:35;6.78;;;4.18;;
51495;SDS011;37572;52.094;4.870;2022-12-20T09:35:01;7.18;;;4.22;;
51495;SDS011;37572;52.094;4.870;2022-12-20T09:37:28;8.32;;;5.00;;
51495;SDS011;37572;52.094;4.870;2022-12-20T09:39:53;5.82;;;4.30;;
51495;SDS011;37572;52.094;4.870;2022-12-20T09:42:20;7.30;;;4.83;;
51495;SDS011;37572;52.094;4.870;2022-12-20T09:44:46;7.55;;;4.75;;
51495;SDS011;37572;52.094;4.870;2022-12-20T09:47:16;9.85;;;4.80;;
51495;SDS011;37572;52.094;4.870;2022-12-20T09:49:44;7.75;;;4.97;;
51495;SDS011;37572;52.094;4.870;2022-12-20T10:00:13;8.02;;;4.40;;
51495;SDS011;37572;52.094;4.870;2022-12-20T10:02:38;9.77;;;5.07;;
51495;SDS011;37572;52.094;4.870;2022-12-20T10:05:04;8.80;;;4.97;;
51495;SDS011;37572;52.094;4.870;2022-12-20T10:12:32;9.18;;;4.63;;
51495;SDS011;37572;52.094;4.870;2022-12-20T10:15:08;9.48;;;5.22;;
51495;SDS011;37572;52.094;4.870;2022-12-20T10:20:24;9.68;;;5.53;;
51495;SDS011;37572;52.094;4.870;2022-12-20T10:25:32;8.60;;;5.15;;
51495;SDS011;37572;52.094;4.870;2022-12-20T10:28:00;7.60;;;5.20;;
51495;SDS011;37572;52.094;4.870;2022-12-20T10:30:26;10.38;;;5.60;;
51495;SDS011;37572;52.094;4.870;2022-12-20T10:32:53;12.00;;;5.35;;
51495;SDS011;37572;52.094;4.870;2022-12-20T10:35:29;9.25;;;5.35;;
51495;SDS011;37572;52.094;4.870;2022-12-20T10:42:54;9.40;;;6.10;;
51495;SDS011;37572;52.094;4.870;2022-12-20T10:47:45;11.45;;;6.43;;
51495;SDS011;37572;52.094;4.870;2022-12-20T10:50:14;12.98;;;6.00;;
51495;SDS011;37572;52.094;4.870;2022-12-20T10:52:40;10.23;;;6.45;;
51495;SDS011;37572;52.094;4.870;2022-12-20T10:55:24;9.85;;;5.85;;
51495;SDS011;37572;52.094;4.870;2022-12-20T10:57:50;9.07;;;6.10;;
51495;SDS011;37572;52.094;4.870;2022-12-20T11:00:26;11.07;;;6.67;;
51495;SDS011;37572;52.094;4.870;2022-12-20T11:05:37;9.25;;;6.13;;
51495;SDS011;37572;52.094;4.870;2022-12-20T11:08:12;9.50;;;5.50;;
51495;SDS011;37572;52.094;4.870;2022-12-20T11:10:39;12.98;;;7.03;;
51495;SDS011;37572;52.094;4.870;2022-12-20T11:13:04;12.60;;;6.60;;
51495;SDS011;37572;52.094;4.870;2022-12-20T11:15:34;10.75;;;7.00;;
51495;SDS011;37572;52.094;4.870;2022-12-20T11:25:49;12.48;;;7.80;;
51495;SDS011;37572;52.094;4.870;2022-12-20T11:28:29;11.52;;;7.35;;
51495;SDS011;37572;52.094;4.870;2022-12-20T11:41:30;12.07;;;9.10;;
51495;SDS011;37572;52.094;4.870;2022-12-20T11:43:59;12.30;;;7.68;;
51495;SDS011;37572;52.094;4.870;2022-12-20T11:51:34;14.70;;;9.17;;
51495;SDS011;37572;52.094;4.870;2022-12-20T11:56:41;12.93;;;8.43;;
51495;SDS011;37572;52.094;4.870;2022-12-20T12:04:25;14.07;;;9.15;;
51495;SDS011;37572;52.094;4.870;2022-12-20T12:07:02;13.18;;;8.52;;
51495;SDS011;37572;52.094;4.870;2022-12-20T12:09:32;14.52;;;8.77;;
51495;SDS011;37572;52.094;4.870;2022-12-20T12:16:59;15.10;;;9.00;;
51495;SDS011;37572;52.094;4.870;2022-12-20T12:19:29;18.33;;;11.85;;
51495;SDS011;37572;52.094;4.870;2022-12-20T12:22:01;14.68;;;9.45;;
51495;SDS011;37572;52.094;4.870;2022-12-20T12:24:40;17.35;;;10.27;;
51495;SDS011;37572;52.094;4.870;2022-12-20T12:30:02;15.65;;;10.60;;
51495;SDS011;37572;52.094;4.870;2022-12-20T12:32:32;14.17;;;9.23;;
51495;SDS011;37572;52.094;4.870;2022-12-20T12:42:20;14.70;;;8.60;;
51495;SDS011;37572;52.094;4.870;2022-12-20T12:44:52;15.48;;;9.57;;
51495;SDS011;37572;52.094;4.870;2022-12-20T12:47:20;14.27;;;8.80;;
51495;SDS011;37572;52.094;4.870;2022-12-20T12:49:47;14.52;;;8.80;;
51495;SDS011;37572;52.094;4.870;2022-12-20T12:57:56;13.55;;;8.77;;
51495;SDS011;37572;52.094;4.870;2022-12-20T13:03:13;14.18;;;8.88;;
51495;SDS011;37572;52.094;4.870;2022-12-20T13:05:40;12.32;;;9.27;;
51495;SDS011;37572;52.094;4.870;2022-12-20T13:08:13;14.33;;;9.67;;
51495;SDS011;37572;52.094;4.870;2022-12-20T13:13:11;16.48;;;10.68;;
51495;SDS011;37572;52.094;4.870;2022-12-20T13:20:33;17.83;;;11.95;;
51495;SDS011;37572;52.094;4.870;2022-12-20T13:25:35;19.55;;;10.65;;
51495;SDS011;37572;52.094;4.870;2022-12-20T13:30:38;13.50;;;9.35;;
51495;SDS011;37572;52.094;4.870;2022-12-20T13:33:15;17.00;;;9.93;;
51495;SDS011;37572;52.094;4.870;2022-12-20T13:36:00;14.25;;;8.65;;
51495;SDS011;37572;52.094;4.870;2022-12-20T13:43:47;15.05;;;9.80;;
51495;SDS011;37572;52.094;4.870;2022-12-20T13:46:17;14.05;;;8.43;;
51495;SDS011;37572;52.094;4.870;2022-12-20T13:51:10;10.52;;;8.20;;
51495;SDS011;37572;52.094;4.870;2022-12-20T13:53:39;12.40;;;8.05;;
51495;SDS011;37572;52.094;4.870;2022-12-20T13:58:49;11.35;;;8.02;;
51495;SDS011;37572;52.094;4.870;2022-12-20T14:01:21;14.20;;;8.50;;
51495;SDS011;37572;52.094;4.870;2022-12-20T14:03:47;13.30;;;8.70;;
51495;SDS011;37572;52.094;4.870;2022-12-20T14:06:12;12.83;;;8.07;;
51495;SDS011;37572;52.094;4.870;2022-12-20T14:08:44;12.93;;;8.20;;
51495;SDS011;37572;52.094;4.870;2022-12-20T14:11:11;14.18;;;10.05;;
51495;SDS011;37572;52.094;4.870;2022-12-20T14:13:37;14.27;;;9.45;;
51495;SDS011;37572;52.094;4.870;2022-12-20T14:16:09;13.52;;;9.55;;
51495;SDS011;37572;52.094;4.870;2022-12-20T14:18:35;13.43;;;9.80;;
51495;SDS011;37572;52.094;4.870;2022-12-20T14:21:01;16.87;;;10.13;;
51495;SDS011;37572;52.094;4.870;2022-12-20T14:23:34;16.63;;;11.70;;
51495;SDS011;37572;52.094;4.870;2022-12-20T14:26:00;14.55;;;9.52;;
51495;SDS011;37572;52.094;4.870;2022-12-20T14:28:28;15.88;;;10.88;;
51495;SDS011;37572;52.094;4.870;2022-12-20T14:30:55;17.08;;;10.68;;
51495;SDS011;37572;52.094;4.870;2022-12-20T14:33:24;15.93;;;10.65;;
51495;SDS011;37572;52.094;4.870;2022-12-20T14:35:51;16.50;;;10.57;;
51495;SDS011;37572;52.094;4.870;2022-12-20T14:38:21;15.00;;;11.27;;
51495;SDS011;37572;52.094;4.870;2022-12-20T14:40:46;15.07;;;9.55;;
51495;SDS011;37572;52.094;4.870;2022-12-20T14:43:15;16.50;;;11.30;;
51495;SDS011;37572;52.094;4.870;2022-12-20T14:45:40;17.33;;;10.35;;
51495;SDS011;37572;52.094;4.870;2022-12-20T14:48:06;15.23;;;9.13;;
51495;SDS011;37572;52.094;4.870;2022-12-20T14:50:39;14.15;;;9.82;;
51495;SDS011;37572;52.094;4.870;2022-12-20T14:53:11;17.40;;;10.90;;
51495;SDS011;37572;52.094;4.870;2022-12-20T14:55:43;14.73;;;9.77;;
51495;SDS011;37572;52.094;4.870;2022-12-20T15:03:20;15.55;;;9.30;;
51495;SDS011;37572;52.094;4.870;2022-12-20T15:05:47;16.08;;;10.68;;
51495;SDS011;37572;52.094;4.870;2022-12-20T15:08:14;17.02;;;11.10;;
51495;SDS011;37572;52.094;4.870;2022-12-20T15:10:40;14.40;;;9.73;;
51495;SDS011;37572;52.094;4.870;2022-12-20T15:13:13;16.15;;;10.45;;
51495;SDS011;37572;52.094;4.870;2022-12-20T15:15:39;16.98;;;10.32;;
51495;SDS011;37572;52.094;4.870;2022-12-20T15:18:11;16.75;;;10.77;;
51495;SDS011;37572;52.094;4.870;2022-12-20T15:20:37;13.75;;;10.52;;
51495;SDS011;37572;52.094;4.870;2022-12-20T15:23:02;18.77;;;11.48;;
51495;SDS011;37572;52.094;4.870;2022-12-20T15:25:28;18.23;;;11.80;;
51495;SDS011;37572;52.094;4.870;2022-12-20T15:27:54;17.80;;;11.20;;
51495;SDS011;37572;52.094;4.870;2022-12-20T15:30:19;18.13;;;11.63;;
51495;SDS011;37572;52.094;4.870;2022-12-20T15:32:44;16.60;;;12.13;;
51495;SDS011;37572;52.094;4.870;2022-12-20T15:35:12;17.63;;;10.60;;
51495;SDS011;37572;52.094;4.870;2022-12-20T15:37:38;17.30;;;11.68;;
51495;SDS011;37572;52.094;4.870;2022-12-20T15:40:03;21.83;;;12.53;;
51495;SDS011;37572;52.094;4.870;2022-12-20T15:42:28;19.95;;;11.95;;
51495;SDS011;37572;52.094;4.870;2022-12-20T15:44:54;16.20;;;11.10;;
51495;SDS011;37572;52.094;4.870;2022-12-20T15:47:19;17.50;;;11.35;;
51495;SDS011;37572;52.094;4.870;2022-12-20T15:49:44;21.50;;;12.50;;
51495;SDS011;37572;52.094;4.870;2022-12-20T15:52:15;18.43;;;11.07;;
51495;SDS011;37572;52.094;4.870;2022-12-20T15:54:42;15.88;;;11.25;;
51495;SDS011;37572;52.094;4.870;2022-12-20T15:57:08;19.07;;;11.33;;
51495;SDS011;37572;52.094;4.870;2022-12-20T15:59:35;16.30;;;11.30;;
51495;SDS011;37572;52.094;4.870;2022-12-20T16:02:00;17.33;;;10.80;;
51495;SDS011;37572;52.094;4.870;2022-12-20T16:04:26;18.13;;;11.23;;
51495;SDS011;37572;52.094;4.870;2022-12-20T16:06:52;17.35;;;11.27;;
51495;SDS011;37572;52.094;4.870;2022-12-20T16:09:18;18.00;;;11.82;;
51495;SDS011;37572;52.094;4.870;2022-12-20T16:11:43;18.08;;;11.57;;
51495;SDS011;37572;52.094;4.870;2022-12-20T16:14:12;17.77;;;11.57;;
51495;SDS011;37572;52.094;4.870;2022-12-20T16:16:39;20.30;;;12.30;;
51495;SDS011;37572;52.094;4.870;2022-12-20T16:19:04;18.93;;;11.93;;
51495;SDS011;37572;52.094;4.870;2022-12-20T16:21:30;18.00;;;11.37;;
51495;SDS011;37572;52.094;4.870;2022-12-20T16:23:56;20.40;;;12.43;;
51495;SDS011;37572;52.094;4.870;2022-12-20T16:26:22;18.90;;;11.77;;
51495;SDS011;37572;52.094;4.870;2022-12-20T16:28:47;22.33;;;12.43;;
51495;SDS011;37572;52.094;4.870;2022-12-20T16:31:29;21.83;;;13.23;;
51495;SDS011;37572;52.094;4.870;2022-12-20T16:33:55;23.60;;;11.82;;
51495;SDS011;37572;52.094;4.870;2022-12-20T16:36:21;19.92;;;11.98;;
51495;SDS011;37572;52.094;4.870;2022-12-20T16:38:47;25.33;;;12.73;;
51495;SDS011;37572;52.094;4.870;2022-12-20T16:41:13;19.48;;;11.85;;
51495;SDS011;37572;52.094;4.870;2022-12-20T16:43:39;20.15;;;11.90;;
51495;SDS011;37572;52.094;4.870;2022-12-20T16:46:04;21.13;;;12.50;;